Airport View

Enter AWOS ICAO identifier for current METAR.

ex. KFNL

KIAB 191256Z AUTO 29015G19KT 10SM CLR 14/09 A2984 RMK AO2 SLP102 T01390089 $

19 May 2019 13:37

Other Area AWOS: KBEC - KAAO - KICT - K3AU

TAF KIAB 191000Z 1910/2016 30009KT 9999 BKN090 QNH2968INS BECMG 1913/1914 33012G18KT 9999 SKC QNH2980INS BECMG 1923/1924 07009KT 9999 SKC QNH2989INS BECMG 2014/2015 07015G20KT 9999 SCT030 QNH3002INS TX22/1921Z TN12/1912Z